createdAt,value
2023-05-21T00:00:14.031Z,34.18
2023-05-21T00:01:14.073Z,34.23
2023-05-21T00:02:14.137Z,34.19
2023-05-21T00:03:14.376Z,34.23
2023-05-21T00:04:14.317Z,34.26
2023-05-21T00:05:14.936Z,34.23
2023-05-21T00:06:14.425Z,34.28
2023-05-21T00:07:14.433Z,34.26
2023-05-21T00:08:14.466Z,34.31
2023-05-21T00:09:14.555Z,34.27
2023-05-21T00:10:14.642Z,34.30
2023-05-21T00:11:14.668Z,34.31
2023-05-21T00:12:14.727Z,34.32
2023-05-21T00:13:14.805Z,34.36
2023-05-21T00:14:14.865Z,34.43
2023-05-21T00:15:14.931Z,34.42
2023-05-21T00:16:16.949Z,34.45
2023-05-21T00:17:15.032Z,34.52
2023-05-21T00:18:15.107Z,34.53
2023-05-21T00:19:15.196Z,34.59
2023-05-21T00:20:15.238Z,34.65
2023-05-21T00:21:15.281Z,34.72
2023-05-21T00:22:15.338Z,34.77
2023-05-21T00:23:15.387Z,34.81
2023-05-21T00:24:15.529Z,34.84
2023-05-21T00:25:15.609Z,34.86
2023-05-21T00:26:15.542Z,34.97
2023-05-21T00:27:15.656Z,35.00
2023-05-21T00:28:15.647Z,35.04
2023-05-21T00:29:15.697Z,35.03
2023-05-21T00:30:15.704Z,35.11
2023-05-21T00:31:15.785Z,35.13
2023-05-21T00:32:15.813Z,35.12
2023-05-21T00:33:15.777Z,35.16
2023-05-21T00:34:15.827Z,35.25
2023-05-21T00:35:15.887Z,35.23
2023-05-21T00:36:15.902Z,35.29
2023-05-21T00:37:15.914Z,35.30
2023-05-21T00:38:15.972Z,35.35
2023-05-21T00:39:15.975Z,35.42
2023-05-21T00:40:15.968Z,35.41
2023-05-21T00:41:15.973Z,35.46
2023-05-21T00:42:16.006Z,35.54
2023-05-21T00:43:15.996Z,35.51
2023-05-21T00:44:16.000Z,35.57
2023-05-21T00:45:16.007Z,35.65
2023-05-21T00:46:16.083Z,35.67
2023-05-21T00:47:16.022Z,35.65
2023-05-21T00:48:16.040Z,35.73
2023-05-21T00:49:16.015Z,35.72
2023-05-21T00:50:15.993Z,35.78
2023-05-21T00:51:16.065Z,35.78
2023-05-21T00:52:16.018Z,35.78
2023-05-21T00:53:15.982Z,35.81
2023-05-21T00:54:16.000Z,35.84
2023-05-21T00:55:16.015Z,35.85
2023-05-21T00:56:16.017Z,35.85
2023-05-21T00:57:16.015Z,35.88
2023-05-21T00:58:15.993Z,35.94
2023-05-21T00:59:15.998Z,35.92
2023-05-21T01:00:16.011Z,35.97
2023-05-21T01:01:16.014Z,35.99
2023-05-21T01:02:15.984Z,36.03
2023-05-21T01:03:16.099Z,36.06
2023-05-21T01:04:15.958Z,36.11
2023-05-21T01:05:15.957Z,36.11
2023-05-21T01:06:15.956Z,36.15
2023-05-21T01:07:15.962Z,36.17
2023-05-21T01:08:15.957Z,36.21
2023-05-21T01:09:15.963Z,36.26
2023-05-21T01:10:15.985Z,36.28
2023-05-21T01:11:15.946Z,36.30
2023-05-21T01:12:15.938Z,36.36
2023-05-21T01:13:15.956Z,36.36
2023-05-21T01:14:15.962Z,36.36
2023-05-21T01:15:15.982Z,36.41
2023-05-21T01:16:15.949Z,36.40
2023-05-21T01:17:16.446Z,36.46
2023-05-21T01:18:16.075Z,36.46
2023-05-21T01:19:16.047Z,36.48
2023-05-21T01:20:15.921Z,36.54
2023-05-21T01:21:15.938Z,36.59
2023-05-21T01:22:15.961Z,36.55
2023-05-21T01:23:15.927Z,36.59
2023-05-21T01:24:15.960Z,36.62
2023-05-21T01:25:15.942Z,36.65
2023-05-21T01:26:16.168Z,36.66
2023-05-21T01:27:15.942Z,36.73
2023-05-21T01:28:15.957Z,36.73
2023-05-21T01:29:15.964Z,36.76
2023-05-21T01:30:15.924Z,36.73
2023-05-21T01:31:15.941Z,36.74
2023-05-21T01:32:15.955Z,36.73
2023-05-21T01:33:16.040Z,36.75
2023-05-21T01:34:15.983Z,36.76
2023-05-21T01:35:15.918Z,36.78
2023-05-21T01:36:16.017Z,36.76
2023-05-21T01:37:15.999Z,36.74
2023-05-21T01:38:15.972Z,36.78
2023-05-21T01:39:16.007Z,36.81
2023-05-21T01:40:15.889Z,36.86
2023-05-21T01:41:15.920Z,36.87
2023-05-21T01:42:16.024Z,36.87
2023-05-21T01:43:15.888Z,36.81
2023-05-21T01:44:15.902Z,36.83
2023-05-21T01:45:16.037Z,36.85
2023-05-21T01:46:15.921Z,36.88
2023-05-21T01:47:15.904Z,36.85
2023-05-21T01:48:15.909Z,36.85
2023-05-21T01:49:15.948Z,36.81
2023-05-21T01:50:15.998Z,36.84
2023-05-21T01:51:15.938Z,36.88
2023-05-21T01:52:15.956Z,36.87
2023-05-21T01:53:15.965Z,36.88
2023-05-21T01:54:15.987Z,36.82
2023-05-21T01:55:15.953Z,36.93
2023-05-21T01:56:15.960Z,36.90
2023-05-21T01:57:16.094Z,36.92
2023-05-21T01:58:15.994Z,36.90
2023-05-21T01:59:15.973Z,36.91
2023-05-21T02:00:16.030Z,36.98
2023-05-21T02:01:16.013Z,36.97
2023-05-21T02:02:16.199Z,37.00
2023-05-21T02:03:16.258Z,37.05
2023-05-21T02:04:16.063Z,37.08
2023-05-21T02:05:16.073Z,37.08
2023-05-21T02:06:16.206Z,37.06
2023-05-21T02:07:16.193Z,37.17
2023-05-21T02:08:16.217Z,37.17
2023-05-21T02:09:16.116Z,37.20
2023-05-21T02:10:16.201Z,37.23
2023-05-21T02:11:16.293Z,37.21
2023-05-21T02:12:16.155Z,37.23
2023-05-21T02:13:16.168Z,37.22
2023-05-21T02:14:16.157Z,37.23
2023-05-21T02:15:16.196Z,37.28
2023-05-21T02:16:16.261Z,37.28
2023-05-21T02:17:16.204Z,37.28
2023-05-21T02:18:16.736Z,37.33
2023-05-21T02:19:16.326Z,37.32
2023-05-21T02:20:16.320Z,37.37
2023-05-21T02:21:16.254Z,37.38
2023-05-21T02:22:16.276Z,37.40
2023-05-21T02:23:16.320Z,37.40
2023-05-21T02:24:16.279Z,37.43
2023-05-21T02:25:16.333Z,37.51
2023-05-21T02:26:16.328Z,37.52
2023-05-21T02:27:16.332Z,37.52
2023-05-21T02:28:16.369Z,37.54
2023-05-21T02:29:16.377Z,37.59
2023-05-21T02:30:16.402Z,37.57
2023-05-21T02:31:16.414Z,37.52
2023-05-21T02:32:16.428Z,37.56
2023-05-21T02:33:16.480Z,37.56
2023-05-21T02:34:16.517Z,37.58
2023-05-21T02:35:16.501Z,37.58
2023-05-21T02:36:16.516Z,37.59
2023-05-21T02:37:16.525Z,37.58
2023-05-21T02:38:16.561Z,37.54
2023-05-21T02:39:16.562Z,37.51
2023-05-21T02:40:16.595Z,37.56
2023-05-21T02:41:16.630Z,37.54
2023-05-21T02:42:16.613Z,37.54
2023-05-21T02:43:16.761Z,37.52
2023-05-21T02:44:16.683Z,37.53
2023-05-21T02:45:16.677Z,37.57
2023-05-21T02:46:16.779Z,37.54
2023-05-21T02:47:16.749Z,37.54
2023-05-21T02:48:16.752Z,37.54
2023-05-21T02:49:16.768Z,37.47
2023-05-21T02:50:16.798Z,37.44
2023-05-21T02:51:16.765Z,37.47
2023-05-21T02:52:16.808Z,37.44
2023-05-21T02:53:16.846Z,37.43
2023-05-21T02:54:16.851Z,37.41
2023-05-21T02:55:16.868Z,37.42
2023-05-21T02:56:16.841Z,37.44
2023-05-21T02:57:16.856Z,37.43
2023-05-21T02:58:16.923Z,37.40
2023-05-21T02:59:16.928Z,37.40
2023-05-21T03:00:16.928Z,37.40
2023-05-21T03:01:17.057Z,37.36
2023-05-21T03:02:17.004Z,37.38
2023-05-21T03:03:17.164Z,37.33
2023-05-21T03:04:16.977Z,37.37
2023-05-21T03:05:17.019Z,37.30
2023-05-21T03:06:17.012Z,37.27
2023-05-21T03:07:17.038Z,37.28
2023-05-21T03:08:17.047Z,37.27
2023-05-21T03:09:17.087Z,37.31
2023-05-21T03:10:17.106Z,37.23
2023-05-21T03:11:17.131Z,37.22
2023-05-21T03:12:17.121Z,37.25
2023-05-21T03:13:17.198Z,37.20
2023-05-21T03:14:17.168Z,37.15
2023-05-21T03:15:17.190Z,37.19
2023-05-21T03:16:17.246Z,37.13
2023-05-21T03:17:17.264Z,37.10
2023-05-21T03:18:17.250Z,37.08
2023-05-21T03:19:17.316Z,37.11
2023-05-21T03:20:17.301Z,37.10
2023-05-21T03:21:17.267Z,37.08
2023-05-21T03:22:17.296Z,37.09
2023-05-21T03:23:17.325Z,37.11
2023-05-21T03:24:17.356Z,37.11
2023-05-21T03:25:17.420Z,37.14
2023-05-21T03:26:17.411Z,37.17
2023-05-21T03:27:17.416Z,37.23
2023-05-21T03:28:17.443Z,37.20
2023-05-21T03:29:17.500Z,37.15
2023-05-21T03:30:17.532Z,37.16
2023-05-21T03:31:17.521Z,37.16
2023-05-21T03:32:17.635Z,37.18
2023-05-21T03:33:17.557Z,37.22
2023-05-21T03:34:17.561Z,37.20
2023-05-21T03:35:17.620Z,37.16
2023-05-21T03:36:17.619Z,37.16
2023-05-21T03:37:17.649Z,37.21
2023-05-21T03:38:17.653Z,37.20
2023-05-21T03:39:17.682Z,37.20
2023-05-21T03:40:17.719Z,37.25
2023-05-21T03:41:17.726Z,37.19
2023-05-21T03:42:17.744Z,37.25
2023-05-21T03:43:17.776Z,37.22
2023-05-21T03:44:17.807Z,37.26
2023-05-21T03:45:17.861Z,37.27
2023-05-21T03:46:17.858Z,37.28
2023-05-21T03:47:17.883Z,37.29
2023-05-21T03:48:17.916Z,37.27
2023-05-21T03:49:17.949Z,37.27
2023-05-21T03:50:17.997Z,37.25
2023-05-21T03:51:18.043Z,37.26
2023-05-21T03:52:18.054Z,37.23
2023-05-21T03:53:18.124Z,37.22
2023-05-21T03:54:18.069Z,37.27
2023-05-21T03:55:18.141Z,37.21
2023-05-21T03:56:18.125Z,37.24
2023-05-21T03:57:18.169Z,37.23
2023-05-21T03:58:18.210Z,37.31
2023-05-21T03:59:18.207Z,37.35
2023-05-21T04:00:18.274Z,37.35
2023-05-21T04:01:18.308Z,37.32
2023-05-21T04:02:18.454Z,37.41
2023-05-21T04:03:18.596Z,37.43
2023-05-21T04:04:18.452Z,37.50
2023-05-21T04:05:18.431Z,37.54
2023-05-21T04:06:18.436Z,37.63
2023-05-21T04:07:18.497Z,37.70
2023-05-21T04:08:18.536Z,37.71
2023-05-21T04:09:18.543Z,37.74
2023-05-21T04:10:18.595Z,37.80
2023-05-21T04:11:18.624Z,37.79
2023-05-21T04:12:18.684Z,37.78
2023-05-21T04:13:18.720Z,37.82
2023-05-21T04:14:18.752Z,37.85
2023-05-21T04:15:18.770Z,37.91
2023-05-21T04:16:18.879Z,37.93
2023-05-21T04:17:18.866Z,37.96
2023-05-21T04:18:18.917Z,38.02
2023-05-21T04:19:19.195Z,38.03
2023-05-21T04:20:18.992Z,38.09
2023-05-21T04:21:19.046Z,38.17
2023-05-21T04:22:19.064Z,38.13
2023-05-21T04:23:19.113Z,38.20
2023-05-21T04:24:19.154Z,38.22
2023-05-21T04:25:19.242Z,38.20
2023-05-21T04:26:19.238Z,38.19
2023-05-21T04:27:19.304Z,38.28
2023-05-21T04:28:19.343Z,38.31
2023-05-21T04:29:19.364Z,38.33
2023-05-21T04:30:19.397Z,38.34
2023-05-21T04:31:19.455Z,38.34
2023-05-21T04:32:19.494Z,38.36
2023-05-21T04:33:19.549Z,38.39
2023-05-21T04:34:19.589Z,38.40
2023-05-21T04:35:19.640Z,38.36
2023-05-21T04:36:19.636Z,38.40
2023-05-21T04:37:19.680Z,38.35
2023-05-21T04:38:19.786Z,38.38
2023-05-21T04:39:19.739Z,38.33
2023-05-21T04:40:19.795Z,38.34
2023-05-21T04:41:19.803Z,38.39
2023-05-21T04:42:19.855Z,38.42
2023-05-21T04:43:19.915Z,38.44
2023-05-21T04:44:19.953Z,38.41
2023-05-21T04:45:19.964Z,38.42
2023-05-21T04:46:20.151Z,38.39
2023-05-21T04:47:20.215Z,38.34
2023-05-21T04:48:20.089Z,38.38
2023-05-21T04:49:20.136Z,38.33
2023-05-21T04:50:20.156Z,38.38
2023-05-21T04:51:20.212Z,38.36
2023-05-21T04:52:20.274Z,38.35
2023-05-21T04:53:20.289Z,38.39
2023-05-21T04:54:20.308Z,38.35
2023-05-21T04:55:20.352Z,38.34
2023-05-21T04:56:20.381Z,38.35
2023-05-21T04:57:20.479Z,38.35
2023-05-21T04:58:20.493Z,38.34
2023-05-21T04:59:20.516Z,38.34
2023-05-21T05:00:20.568Z,38.35
2023-05-21T05:01:20.638Z,38.28
2023-05-21T05:02:20.647Z,38.35
2023-05-21T05:03:20.731Z,38.38
2023-05-21T05:04:20.708Z,38.35
2023-05-21T05:05:20.772Z,38.31
2023-05-21T05:06:20.802Z,38.35
2023-05-21T05:07:20.805Z,38.30
2023-05-21T05:08:20.832Z,38.29
2023-05-21T05:09:20.902Z,38.28
2023-05-21T05:10:20.901Z,38.28
2023-05-21T05:11:20.959Z,38.27
2023-05-21T05:12:21.010Z,38.27
2023-05-21T05:13:21.014Z,38.29
2023-05-21T05:14:21.074Z,38.27
2023-05-21T05:15:21.087Z,38.26
2023-05-21T05:16:21.163Z,38.27
2023-05-21T05:17:21.131Z,38.24
2023-05-21T05:18:21.142Z,38.24
2023-05-21T05:19:21.292Z,38.24
2023-05-21T05:20:21.226Z,38.27
2023-05-21T05:21:21.266Z,38.26
2023-05-21T05:22:21.288Z,38.23
2023-05-21T05:23:21.319Z,38.28
2023-05-21T05:24:21.351Z,38.28
2023-05-21T05:25:21.385Z,38.26
2023-05-21T05:26:21.998Z,38.30
2023-05-21T05:27:21.434Z,38.29
2023-05-21T05:28:21.452Z,38.28
2023-05-21T05:29:21.481Z,38.30
2023-05-21T05:30:21.536Z,38.27
2023-05-21T05:31:21.625Z,38.30
2023-05-21T05:32:21.601Z,38.27
2023-05-21T05:33:21.590Z,38.33
2023-05-21T05:34:21.634Z,38.25
2023-05-21T05:35:21.637Z,38.25
2023-05-21T05:36:21.683Z,38.26
2023-05-21T05:37:21.667Z,38.30
2023-05-21T05:38:21.700Z,38.26
2023-05-21T05:39:21.754Z,38.28
2023-05-21T05:40:21.803Z,38.28
2023-05-21T05:41:21.776Z,38.28
2023-05-21T05:42:21.779Z,38.25
2023-05-21T05:43:21.813Z,38.21
2023-05-21T05:44:21.833Z,38.25
2023-05-21T05:45:21.864Z,38.20
2023-05-21T05:46:21.951Z,38.20
2023-05-21T05:47:21.941Z,38.19
2023-05-21T05:48:21.927Z,38.17
2023-05-21T05:49:21.957Z,38.11
2023-05-21T05:50:21.970Z,38.11
2023-05-21T05:51:22.005Z,38.13
2023-05-21T05:52:22.007Z,38.15
2023-05-21T05:53:22.073Z,38.09
2023-05-21T05:54:22.058Z,38.11
2023-05-21T05:55:22.106Z,38.09
2023-05-21T05:56:22.168Z,38.04
2023-05-21T05:57:22.141Z,38.06
2023-05-21T05:58:22.182Z,38.06
2023-05-21T05:59:22.218Z,38.03
2023-05-21T06:00:22.255Z,37.99
2023-05-21T06:01:22.276Z,37.99
2023-05-21T06:02:22.378Z,37.94
2023-05-21T06:03:22.367Z,37.93
2023-05-21T06:04:22.339Z,37.90
2023-05-21T06:05:22.395Z,37.87
2023-05-21T06:06:22.451Z,37.84
2023-05-21T06:07:22.427Z,37.81
2023-05-21T06:08:22.474Z,37.78
2023-05-21T06:09:22.473Z,37.75
2023-05-21T06:10:22.499Z,37.77
2023-05-21T06:11:22.520Z,37.76
2023-05-21T06:12:22.513Z,37.78
2023-05-21T06:13:22.578Z,37.79
2023-05-21T06:14:22.568Z,37.74
2023-05-21T06:15:22.611Z,37.69
2023-05-21T06:16:22.671Z,37.73
2023-05-21T06:17:23.635Z,37.69
2023-05-21T06:18:22.661Z,37.64
2023-05-21T06:19:22.716Z,37.68
2023-05-21T06:20:22.710Z,37.66
2023-05-21T06:21:22.718Z,37.64
2023-05-21T06:22:24.902Z,37.62
2023-05-21T06:23:22.733Z,37.62
2023-05-21T06:24:22.729Z,37.61
2023-05-21T06:25:22.723Z,37.61
2023-05-21T06:26:22.723Z,37.61
2023-05-21T06:27:22.681Z,37.54
2023-05-21T06:28:22.689Z,37.54
2023-05-21T06:29:22.708Z,37.56
2023-05-21T06:30:22.714Z,37.57
2023-05-21T06:31:22.675Z,37.60
2023-05-21T06:32:22.746Z,37.55
2023-05-21T06:33:22.840Z,37.51
2023-05-21T06:34:22.674Z,37.54
2023-05-21T06:35:22.660Z,37.55
2023-05-21T06:36:22.647Z,37.52
2023-05-21T06:37:23.762Z,37.50
2023-05-21T06:38:22.628Z,37.49
2023-05-21T06:39:22.637Z,37.43
2023-05-21T06:40:22.602Z,37.41
2023-05-21T06:41:22.616Z,37.38
2023-05-21T06:42:22.576Z,37.40
2023-05-21T06:43:22.650Z,37.35
2023-05-21T06:44:22.638Z,37.38
2023-05-21T06:45:22.606Z,37.35
2023-05-21T06:46:22.583Z,37.30
2023-05-21T06:47:22.551Z,37.34
2023-05-21T06:48:22.543Z,37.29
2023-05-21T06:49:22.555Z,37.33
2023-05-21T06:50:22.535Z,37.29
2023-05-21T06:51:22.577Z,37.31
2023-05-21T06:52:22.519Z,37.33
2023-05-21T06:53:22.511Z,37.34
2023-05-21T06:54:22.604Z,37.32
2023-05-21T06:55:22.504Z,37.30
2023-05-21T06:56:22.508Z,37.30
2023-05-21T06:57:22.494Z,37.30
2023-05-21T06:58:22.497Z,37.27
2023-05-21T06:59:22.457Z,37.27
2023-05-21T07:00:22.547Z,37.22
2023-05-21T07:01:22.592Z,37.19
2023-05-21T07:02:22.472Z,37.23
2023-05-21T07:03:22.522Z,37.17
2023-05-21T07:04:22.472Z,37.17
2023-05-21T07:05:22.428Z,37.15
2023-05-21T07:06:22.429Z,37.17
2023-05-21T07:07:22.413Z,37.14
2023-05-21T07:08:22.402Z,37.16
2023-05-21T07:09:22.413Z,37.11
2023-05-21T07:10:22.381Z,37.12
2023-05-21T07:11:22.399Z,37.09
2023-05-21T07:12:22.375Z,37.10
2023-05-21T07:13:22.418Z,37.11
2023-05-21T07:14:22.388Z,37.07
2023-05-21T07:15:22.424Z,37.08
2023-05-21T07:16:22.450Z,37.08
2023-05-21T07:17:22.545Z,37.05
2023-05-21T07:18:22.481Z,37.05
2023-05-21T07:19:22.552Z,37.03
2023-05-21T07:20:22.472Z,37.05
2023-05-21T07:21:22.493Z,36.98
2023-05-21T07:22:22.507Z,37.01
2023-05-21T07:23:22.544Z,36.99
2023-05-21T07:24:23.546Z,37.03
2023-05-21T07:25:22.624Z,37.04
2023-05-21T07:26:22.661Z,36.98
2023-05-21T07:27:25.856Z,36.95
2023-05-21T07:28:22.681Z,36.92
2023-05-21T07:29:22.692Z,36.90
2023-05-21T07:30:22.668Z,36.89
2023-05-21T07:31:22.718Z,36.94
2023-05-21T07:32:22.703Z,36.90
2023-05-21T07:33:22.670Z,36.88
2023-05-21T07:34:22.661Z,36.88
2023-05-21T07:35:22.646Z,36.88
2023-05-21T07:36:22.633Z,36.91
2023-05-21T07:37:22.679Z,36.86
2023-05-21T07:38:22.589Z,36.82
2023-05-21T07:39:22.622Z,36.86
2023-05-21T07:40:22.632Z,36.77
2023-05-21T07:41:22.610Z,36.82
2023-05-21T07:42:22.568Z,36.82
2023-05-21T07:43:22.587Z,36.79
2023-05-21T07:44:22.589Z,36.79
2023-05-21T07:45:22.609Z,36.75
2023-05-21T07:46:22.628Z,36.75
2023-05-21T07:47:22.568Z,36.84
2023-05-21T07:48:22.542Z,36.80
2023-05-21T07:49:22.508Z,36.81
2023-05-21T07:50:22.552Z,36.81
2023-05-21T07:51:22.521Z,36.80
2023-05-21T07:52:22.578Z,36.77
2023-05-21T07:53:22.490Z,36.78
2023-05-21T07:54:22.519Z,36.80
2023-05-21T07:55:22.467Z,36.80
2023-05-21T07:56:22.479Z,36.76
2023-05-21T07:57:22.514Z,36.79
2023-05-21T07:58:22.551Z,36.76
2023-05-21T07:59:22.601Z,36.75
2023-05-21T08:00:22.676Z,36.75
2023-05-21T08:01:44.205Z,36.76
2023-05-21T08:02:44.241Z,36.76
2023-05-21T08:03:44.322Z,36.75
2023-05-21T08:04:44.168Z,36.69
2023-05-21T08:05:44.156Z,36.66
2023-05-21T08:06:44.178Z,36.68
2023-05-21T08:07:44.164Z,36.61
2023-05-21T08:08:44.127Z,36.64
2023-05-21T08:09:44.106Z,36.59
2023-05-21T08:10:44.090Z,36.58
2023-05-21T08:11:44.113Z,36.55
2023-05-21T08:12:44.119Z,36.48
2023-05-21T08:13:44.115Z,36.46
2023-05-21T08:14:44.079Z,36.47
2023-05-21T08:15:44.104Z,36.44
2023-05-21T08:16:44.098Z,36.43
2023-05-21T08:17:44.087Z,36.41
2023-05-21T08:18:44.102Z,36.38
2023-05-21T08:19:44.041Z,36.33
2023-05-21T08:20:44.032Z,36.30
2023-05-21T08:21:44.050Z,36.29
2023-05-21T08:22:44.031Z,36.28
2023-05-21T08:23:44.014Z,36.32
2023-05-21T08:24:43.998Z,36.32
2023-05-21T08:25:44.054Z,36.31
2023-05-21T08:26:44.022Z,36.31
2023-05-21T08:27:43.999Z,36.30
2023-05-21T08:28:43.967Z,36.31
2023-05-21T08:29:43.968Z,36.30
2023-05-21T08:30:43.971Z,36.26
2023-05-21T08:31:44.018Z,36.29
2023-05-21T08:32:44.005Z,36.29
2023-05-21T08:33:43.959Z,36.25
2023-05-21T08:34:43.955Z,36.24
2023-05-21T08:35:43.944Z,36.26
2023-05-21T08:36:43.919Z,36.25
2023-05-21T08:37:43.900Z,36.21
2023-05-21T08:38:43.902Z,36.23
2023-05-21T08:39:43.910Z,36.23
2023-05-21T08:40:43.887Z,36.20
2023-05-21T08:41:43.874Z,36.19
2023-05-21T08:42:43.886Z,36.19
2023-05-21T08:43:43.879Z,36.19
2023-05-21T08:44:43.880Z,36.18
2023-05-21T08:45:43.913Z,36.18
2023-05-21T08:46:43.885Z,36.18
2023-05-21T08:47:43.900Z,36.17
2023-05-21T08:48:43.851Z,36.15
2023-05-21T08:49:43.846Z,36.21
2023-05-21T08:50:43.831Z,36.24
2023-05-21T08:51:43.836Z,36.29
2023-05-21T08:52:43.853Z,36.22
2023-05-21T08:53:43.882Z,36.21
2023-05-21T08:54:43.878Z,36.23
2023-05-21T08:55:43.940Z,36.25
2023-05-21T08:56:43.938Z,36.25
2023-05-21T08:57:43.958Z,36.24
2023-05-21T08:58:43.971Z,36.22
2023-05-21T08:59:43.968Z,36.23
2023-05-21T09:00:43.994Z,36.23
2023-05-21T09:01:44.065Z,36.21
2023-05-21T09:02:44.161Z,36.17
2023-05-21T09:03:44.061Z,36.18
2023-05-21T09:04:44.098Z,36.17
2023-05-21T09:05:44.056Z,36.21
2023-05-21T09:06:44.070Z,36.15
2023-05-21T09:07:44.037Z,36.09
2023-05-21T09:08:44.081Z,36.00
2023-05-21T09:09:44.087Z,35.97
2023-05-21T09:10:44.106Z,36.04
2023-05-21T09:11:44.170Z,36.05
2023-05-21T09:12:44.174Z,36.02
2023-05-21T09:13:44.157Z,36.04
2023-05-21T09:14:44.225Z,35.96
2023-05-21T09:15:44.167Z,35.81
2023-05-21T09:16:44.206Z,35.59
2023-05-21T09:17:44.228Z,35.40
2023-05-21T09:18:44.196Z,35.35
2023-05-21T09:19:44.202Z,35.15
2023-05-21T09:20:44.195Z,34.99
2023-05-21T09:21:44.214Z,34.72
2023-05-21T09:22:44.191Z,34.62
2023-05-21T09:23:44.238Z,34.49
2023-05-21T09:24:44.204Z,34.35
2023-05-21T09:25:44.182Z,34.30
2023-05-21T09:26:44.286Z,34.23
2023-05-21T09:27:44.217Z,34.22
2023-05-21T09:28:44.196Z,34.20
2023-05-21T09:29:44.202Z,34.13
2023-05-21T09:30:44.199Z,34.04
2023-05-21T09:31:44.258Z,33.97
2023-05-21T09:32:44.192Z,34.00
2023-05-21T09:33:44.163Z,33.89
2023-05-21T09:34:44.186Z,33.80
2023-05-21T09:35:44.214Z,33.68
2023-05-21T09:36:44.304Z,33.57
2023-05-21T09:37:44.231Z,33.57
2023-05-21T09:38:44.231Z,33.33
2023-05-21T09:39:44.241Z,33.33
2023-05-21T09:40:44.295Z,33.42
2023-05-21T09:41:44.295Z,33.51
2023-05-21T09:42:44.356Z,33.38
2023-05-21T09:43:44.378Z,32.90
2023-05-21T09:44:44.379Z,32.79
2023-05-21T09:45:44.449Z,32.87
2023-05-21T09:46:44.521Z,32.90
2023-05-21T09:47:44.679Z,32.73
2023-05-21T09:48:44.545Z,32.78
2023-05-21T09:49:44.575Z,32.58
2023-05-21T09:50:44.618Z,32.61
2023-05-21T09:51:44.660Z,32.72
2023-05-21T09:52:44.668Z,32.75
2023-05-21T09:53:44.700Z,32.62
2023-05-21T09:54:44.744Z,32.40
2023-05-21T09:55:44.880Z,32.32
2023-05-21T09:56:44.847Z,32.19
2023-05-21T09:57:44.896Z,32.22
2023-05-21T09:58:44.946Z,32.01
2023-05-21T09:59:45.023Z,31.93
2023-05-21T10:00:45.048Z,31.69
2023-05-21T10:01:45.194Z,31.42
2023-05-21T10:02:45.181Z,31.38
2023-05-21T10:03:45.259Z,31.23
2023-05-21T10:04:45.337Z,31.18
2023-05-21T10:05:45.341Z,31.15
2023-05-21T10:06:45.368Z,31.15
2023-05-21T10:07:45.425Z,30.90
2023-05-21T10:08:45.504Z,30.80
2023-05-21T10:09:45.544Z,30.73
2023-05-21T10:10:45.623Z,30.80
2023-05-21T10:11:45.685Z,30.78
2023-05-21T10:12:45.734Z,30.62
2023-05-21T10:13:45.801Z,30.58
2023-05-21T10:14:45.888Z,30.61
2023-05-21T10:15:46.110Z,30.62
2023-05-21T10:16:46.131Z,30.62
2023-05-21T10:17:46.111Z,30.58
2023-05-21T10:18:46.107Z,30.52
2023-05-21T10:19:46.161Z,30.58
2023-05-21T10:20:46.237Z,30.53
2023-05-21T10:21:46.274Z,30.43
2023-05-21T10:22:46.351Z,30.38
2023-05-21T10:23:46.433Z,30.34
2023-05-21T10:24:46.469Z,30.34
2023-05-21T10:25:46.537Z,30.32
2023-05-21T10:26:46.586Z,30.40
2023-05-21T10:27:46.688Z,30.32
2023-05-21T10:28:46.716Z,30.31
2023-05-21T10:29:46.772Z,30.34
2023-05-21T10:30:46.863Z,30.37
2023-05-21T10:31:46.899Z,30.50
2023-05-21T10:32:47.058Z,30.45
2023-05-21T10:33:47.009Z,30.30
2023-05-21T10:34:47.070Z,30.17
2023-05-21T10:35:47.131Z,30.10
2023-05-21T10:36:47.200Z,30.15
2023-05-21T10:37:47.268Z,30.03
2023-05-21T10:38:47.276Z,30.07
2023-05-21T10:39:47.374Z,29.98
2023-05-21T10:40:47.436Z,29.92
2023-05-21T10:41:47.500Z,29.80
2023-05-21T10:42:47.556Z,29.67
2023-05-21T10:43:47.620Z,29.61
2023-05-21T10:44:47.676Z,29.48
2023-05-21T10:45:47.755Z,29.38
2023-05-21T10:46:47.772Z,29.26
2023-05-21T10:47:47.880Z,29.31
2023-05-21T10:48:47.855Z,29.38
2023-05-21T10:49:47.917Z,29.33
2023-05-21T10:50:47.970Z,29.31
2023-05-21T10:51:48.018Z,29.31
2023-05-21T10:52:48.059Z,29.18
2023-05-21T10:53:48.121Z,29.25
2023-05-21T10:54:48.177Z,29.22
2023-05-21T10:55:48.252Z,29.29
2023-05-21T10:56:48.912Z,29.24
2023-05-21T10:57:48.268Z,29.28
2023-05-21T10:58:48.356Z,29.24
2023-05-21T10:59:48.379Z,29.24
2023-05-21T11:00:48.524Z,29.14
2023-05-21T11:01:48.526Z,29.15
2023-05-21T11:02:48.599Z,29.09
2023-05-21T11:03:48.636Z,29.13
2023-05-21T11:04:48.656Z,28.95
2023-05-21T11:05:48.721Z,28.99
2023-05-21T11:06:48.741Z,28.85
2023-05-21T11:07:48.783Z,28.68
2023-05-21T11:08:48.841Z,28.64
2023-05-21T11:09:48.877Z,28.58
2023-05-21T11:10:48.977Z,28.61
2023-05-21T11:11:49.008Z,28.52
2023-05-21T11:12:49.038Z,28.55
2023-05-21T11:13:49.338Z,28.50
2023-05-21T11:14:49.146Z,28.43
2023-05-21T11:15:49.239Z,28.32
2023-05-21T11:16:49.278Z,28.31
2023-05-21T11:17:49.361Z,28.33
2023-05-21T11:18:49.361Z,28.19
2023-05-21T11:19:49.383Z,28.26
2023-05-21T11:20:49.432Z,28.21
2023-05-21T11:21:49.485Z,28.17
2023-05-21T11:22:49.502Z,28.11
2023-05-21T11:23:49.555Z,28.19
2023-05-21T11:24:50.899Z,27.98
2023-05-21T11:25:49.643Z,27.85
2023-05-21T11:26:49.743Z,28.00
2023-05-21T11:27:49.747Z,27.83
2023-05-21T11:28:49.788Z,27.98
2023-05-21T11:29:49.807Z,27.91
2023-05-21T11:30:49.902Z,27.97
2023-05-21T11:31:49.922Z,27.94
2023-05-21T11:32:50.001Z,28.07
2023-05-21T11:33:50.018Z,28.03
2023-05-21T11:34:50.087Z,28.10
2023-05-21T11:35:50.120Z,28.02
2023-05-21T11:36:50.225Z,28.19
2023-05-21T11:37:50.201Z,28.04
2023-05-21T11:38:50.232Z,28.22
2023-05-21T11:39:50.263Z,28.20
2023-05-21T11:40:50.341Z,28.23
2023-05-21T11:41:50.387Z,28.14
2023-05-21T11:42:50.407Z,28.10
2023-05-21T11:43:50.421Z,28.20
2023-05-21T11:44:50.466Z,28.27
2023-05-21T11:45:50.573Z,28.31
2023-05-21T11:46:50.680Z,28.21
2023-05-21T11:47:50.650Z,28.27
2023-05-21T11:48:50.663Z,28.30
2023-05-21T11:49:50.725Z,28.23
2023-05-21T11:50:50.779Z,28.33
2023-05-21T11:51:50.792Z,28.20
2023-05-21T11:52:50.830Z,28.12
2023-05-21T11:53:50.897Z,28.16
2023-05-21T11:54:50.992Z,28.24
2023-05-21T11:55:50.975Z,28.51
2023-05-21T11:56:51.049Z,28.52
2023-05-21T11:57:51.068Z,28.62
2023-05-21T11:58:51.099Z,28.72
2023-05-21T11:59:51.192Z,28.85
2023-05-21T12:00:51.233Z,28.93
2023-05-21T12:01:51.280Z,28.92
2023-05-21T12:02:51.449Z,28.78
2023-05-21T12:03:51.464Z,28.81
2023-05-21T12:04:51.450Z,28.83
2023-05-21T12:05:51.569Z,28.90
2023-05-21T12:06:51.562Z,29.00
2023-05-21T12:07:51.626Z,29.09
2023-05-21T12:08:51.681Z,29.20
2023-05-21T12:09:51.738Z,29.04
2023-05-21T12:10:51.821Z,28.99
2023-05-21T12:11:51.843Z,29.03
2023-05-21T12:12:55.704Z,29.00
2023-05-21T12:13:51.930Z,29.09
2023-05-21T12:14:51.894Z,29.30
2023-05-21T12:15:51.874Z,29.37
2023-05-21T12:16:51.999Z,29.48
2023-05-21T12:17:51.966Z,29.51
2023-05-21T12:18:51.914Z,29.55
2023-05-21T12:19:51.896Z,29.52
2023-05-21T12:20:51.872Z,29.48
2023-05-21T12:21:51.878Z,29.62
2023-05-21T12:22:51.863Z,29.61
2023-05-21T12:23:51.861Z,29.69
2023-05-21T12:24:51.905Z,29.61
2023-05-21T12:25:51.964Z,29.66
2023-05-21T12:26:52.010Z,29.74
2023-05-21T12:27:52.088Z,29.86
2023-05-21T12:28:52.097Z,29.93
2023-05-21T12:29:52.159Z,29.89
2023-05-21T12:30:52.246Z,30.00
2023-05-21T12:31:52.330Z,29.95
2023-05-21T12:32:52.406Z,30.09
2023-05-21T12:33:52.395Z,30.10
2023-05-21T12:34:52.451Z,30.12
2023-05-21T12:35:52.689Z,30.14
2023-05-21T12:36:52.600Z,30.14
2023-05-21T12:37:52.815Z,30.14
2023-05-21T12:38:52.681Z,30.27
2023-05-21T12:39:52.732Z,30.33
2023-05-21T12:40:52.787Z,30.41
2023-05-21T12:41:52.844Z,30.58
2023-05-21T12:42:52.907Z,30.64
2023-05-21T12:43:52.965Z,30.55
2023-05-21T12:44:53.018Z,30.55
2023-05-21T12:45:53.126Z,30.57
2023-05-21T12:46:53.135Z,30.58
2023-05-21T12:47:53.239Z,30.72
2023-05-21T12:48:53.207Z,30.72
2023-05-21T12:49:55.245Z,30.69
2023-05-21T12:50:53.371Z,30.72
2023-05-21T12:51:53.398Z,30.65
2023-05-21T12:52:53.483Z,30.51